Time;durP1;ratioP1;P1;durP2;ratioP2;P2;SDS_P1;SDS_P2;PMS_P1;PMS_P2;Temp;Humidity;BMP_temperature;BMP_pressure;BME280_temperature;BME280_humidity;BME280_pressure;Samples;Min_cycle;Max_cycle;Signal;HPM_P1;HPM_P2
2023/05/03 00:01:46;;;;;;;;;;;16.60;61.60;;;;;;4991503;28;87013;-41
2023/05/03 00:04:15;;;;;;;;;;;16.50;61.50;;;;;;4993994;28;87919;-40
2023/05/03 00:06:44;;;;;;;;;;;16.50;61.60;;;;;;4992081;28;87062;-39
2023/05/03 00:09:09;;;;;;;;;;;16.50;61.50;;;;;;4992372;28;87040;-40
2023/05/03 00:11:35;;;;;;;;;;;16.50;61.60;;;;;;4996642;28;87428;-41
2023/05/03 00:14:01;;;;;;;;;;;16.50;61.50;;;;;;4991019;28;87125;-40
2023/05/03 00:16:26;;;;;;;;;;;16.50;61.50;;;;;;4994169;28;87512;-41
2023/05/03 00:18:52;;;;;;;;;;;16.50;61.60;;;;;;4991682;28;89302;-41
2023/05/03 00:21:17;;;;;;;;;;;16.50;61.60;;;;;;4993697;28;86376;-40
2023/05/03 00:23:43;;;;;;;;;;;16.40;61.60;;;;;;4993245;28;87056;-40
2023/05/03 00:26:08;;;;;;;;;;;16.50;61.60;;;;;;4991464;28;87964;-40
2023/05/03 00:28:34;;;;;;;;;;;16.40;61.60;;;;;;4993726;28;88140;-40
2023/05/03 00:31:07;;;;;;;;;;;16.40;61.60;;;;;;4991194;28;87688;-40
2023/05/03 00:33:32;;;;;;;;;;;16.40;61.60;;;;;;4994891;28;89179;-41
2023/05/03 00:35:58;;;;;;;;;;;16.40;61.60;;;;;;4992858;28;87444;-40
2023/05/03 00:38:23;;;;;;;;;;;16.40;61.60;;;;;;4991374;28;87899;-41
2023/05/03 00:40:55;;;;;;;;;;;16.40;61.60;;;;;;4994054;28;87170;-41
2023/05/03 00:43:20;;;;;;;;;;;16.40;61.60;;;;;;4991887;28;87482;-40
2023/05/03 00:45:46;;;;;;;;;;;16.40;61.50;;;;;;4992928;28;87229;-41
2023/05/03 00:48:11;;;;;;;;;;;16.40;61.50;;;;;;4992628;28;87208;-41
2023/05/03 00:50:38;;;;;;;;;;;16.40;61.30;;;;;;4991357;28;87557;-40
2023/05/03 00:53:03;;;;;;;;;;;16.40;61.40;;;;;;4993122;28;88603;-41
2023/05/03 00:55:32;;;;;;;;;;;16.40;61.30;;;;;;4993282;28;87093;-40
2023/05/03 00:57:57;;;;;;;;;;;16.30;61.40;;;;;;4992582;28;87991;-40
2023/05/03 01:00:23;;;;;;;;;;;16.40;61.30;;;;;;4992163;28;86992;-41
2023/05/03 01:02:49;;;;;;;;;;;16.40;61.30;;;;;;4991509;28;87392;-41
2023/05/03 01:05:15;;;;;;;;;;;16.40;61.20;;;;;;4993097;28;89393;-41
2023/05/03 01:07:49;;;;;;;;;;;16.30;61.20;;;;;;4990240;28;87215;-41
2023/05/03 01:10:29;;;;;;;;;;;16.30;61.30;;;;;;4992594;28;87385;-40
2023/05/03 01:13:02;;;;;;;;;;;16.30;61.40;;;;;;4990335;28;88161;-39
2023/05/03 01:15:47;;;;;;;;;;;16.30;61.30;;;;;;4991487;28;87102;-40
2023/05/03 01:18:15;;;;;;;;;;;16.20;61.40;;;;;;4993491;28;88426;-41
2023/05/03 01:20:42;;;;;;;;;;;16.20;61.30;;;;;;4991487;28;87804;-39
2023/05/03 01:23:13;;;;;;;;;;;16.20;61.40;;;;;;4993444;28;87397;-41
2023/05/03 01:25:39;;;;;;;;;;;16.20;61.40;;;;;;4990724;28;88132;-40
2023/05/03 01:28:05;;;;;;;;;;;16.20;61.30;;;;;;4992118;28;87081;-44
2023/05/03 01:30:31;;;;;;;;;;;16.20;61.30;;;;;;4991995;28;88826;-39
2023/05/03 01:33:00;;;;;;;;;;;16.20;62.00;;;;;;4990601;28;87970;-41
2023/05/03 01:35:29;;;;;;;;;;;16.20;61.30;;;;;;4994057;28;86463;-40
2023/05/03 01:37:56;;;;;;;;;;;16.20;61.40;;;;;;4993216;28;87059;-41
2023/05/03 01:40:22;;;;;;;;;;;16.10;61.20;;;;;;4992101;28;87184;-41
2023/05/03 01:42:47;;;;;;;;;;;16.20;61.30;;;;;;4991894;28;88239;-40
2023/05/03 01:45:13;;;;;;;;;;;16.10;61.20;;;;;;4990371;28;87835;-41
2023/05/03 01:47:38;;;;;;;;;;;16.10;61.20;;;;;;4994184;28;87161;-40
2023/05/03 01:50:04;;;;;;;;;;;16.10;61.10;;;;;;4993794;28;87475;-41
2023/05/03 01:52:30;;;;;;;;;;;16.10;61.20;;;;;;4995699;28;87957;-41
2023/05/03 01:54:55;;;;;;;;;;;16.10;61.70;;;;;;4994674;28;86978;-41
2023/05/03 01:57:21;;;;;;;;;;;16.10;61.20;;;;;;4994820;28;88001;-40
2023/05/03 01:59:47;;;;;;;;;;;16.10;61.30;;;;;;4999019;28;88830;-40
2023/05/03 02:02:12;;;;;;;;;;;16.10;61.20;;;;;;4993390;28;87000;-39
2023/05/03 02:04:38;;;;;;;;;;;16.00;61.20;;;;;;4992693;28;88628;-41
2023/05/03 02:07:03;;;;;;;;;;;16.10;61.20;;;;;;4995494;28;88046;-40
2023/05/03 02:09:29;;;;;;;;;;;16.00;61.10;;;;;;4994652;28;88378;-39
2023/05/03 02:11:54;;;;;;;;;;;16.00;61.20;;;;;;4993985;28;88049;-40
2023/05/03 02:14:20;;;;;;;;;;;16.00;61.10;;;;;;4994778;28;87329;-40
2023/05/03 02:16:46;;;;;;;;;;;16.00;61.20;;;;;;4993269;28;87113;-40
2023/05/03 02:19:11;;;;;;;;;;;16.00;61.20;;;;;;4995905;28;88081;-41
2023/05/03 02:21:37;;;;;;;;;;;16.00;61.10;;;;;;4996365;28;87119;-39
2023/05/03 02:24:02;;;;;;;;;;;16.00;61.00;;;;;;4995688;28;87567;-41
2023/05/03 02:26:28;;;;;;;;;;;16.00;61.80;;;;;;4994884;28;87201;-41
2023/05/03 02:28:55;;;;;;;;;;;16.00;61.20;;;;;;4994364;28;87186;-41
2023/05/03 02:31:21;;;;;;;;;;;16.00;61.10;;;;;;4994912;28;89023;-39
2023/05/03 02:33:46;;;;;;;;;;;15.90;61.10;;;;;;4992549;28;87176;-40
2023/05/03 02:36:12;;;;;;;;;;;15.90;61.20;;;;;;4995876;28;87536;-41
2023/05/03 02:38:37;;;;;;;;;;;15.90;61.20;;;;;;4993401;28;88205;-40
2023/05/03 02:41:03;;;;;;;;;;;15.90;61.10;;;;;;4994697;28;87508;-40
2023/05/03 02:43:28;;;;;;;;;;;15.80;61.20;;;;;;4997426;28;87246;-39
2023/05/03 02:45:54;;;;;;;;;;;15.80;60.90;;;;;;4993359;28;88310;-41
2023/05/03 02:48:19;;;;;;;;;;;15.80;60.90;;;;;;4996371;28;87430;-41
2023/05/03 02:50:45;;;;;;;;;;;15.80;61.00;;;;;;4992409;28;87988;-40
2023/05/03 02:53:10;;;;;;;;;;;15.80;61.00;;;;;;4995256;28;87690;-41
2023/05/03 02:55:36;;;;;;;;;;;15.80;60.80;;;;;;4993108;28;87947;-41
2023/05/03 02:58:01;;;;;;;;;;;15.80;60.80;;;;;;4993840;28;87830;-39
2023/05/03 03:00:27;;;;;;;;;;;15.80;60.70;;;;;;4994979;28;87149;-39
2023/05/03 03:02:52;;;;;;;;;;;15.80;60.80;;;;;;4992200;28;87572;-40
2023/05/03 03:05:18;;;;;;;;;;;15.80;60.90;;;;;;4998188;28;87895;-41
2023/05/03 03:07:43;;;;;;;;;;;15.80;60.80;;;;;;4992799;28;87505;-39
2023/05/03 03:10:09;;;;;;;;;;;15.70;60.70;;;;;;4994365;28;87536;-40
2023/05/03 03:12:35;;;;;;;;;;;15.70;60.70;;;;;;4994233;28;86418;-41
2023/05/03 03:15:01;;;;;;;;;;;15.70;60.70;;;;;;4992553;28;87417;-41
2023/05/03 03:17:26;;;;;;;;;;;15.70;60.60;;;;;;4994679;28;88069;-39
2023/05/03 03:19:52;;;;;;;;;;;15.70;60.70;;;;;;4991433;28;88108;-40
2023/05/03 03:22:17;;;;;;;;;;;15.70;60.60;;;;;;4995334;28;88348;-41
2023/05/03 03:24:44;;;;;;;;;;;15.70;60.70;;;;;;4992376;28;88037;-40
2023/05/03 03:27:09;;;;;;;;;;;15.70;60.40;;;;;;4996441;28;87516;-41
2023/05/03 03:29:35;;;;;;;;;;;15.60;60.70;;;;;;4993783;28;87951;-40
2023/05/03 03:32:00;;;;;;;;;;;15.60;60.40;;;;;;4992451;28;87180;-41
2023/05/03 03:34:26;;;;;;;;;;;15.60;60.50;;;;;;4995033;28;87493;-39
2023/05/03 03:36:51;;;;;;;;;;;15.60;60.50;;;;;;4992092;28;88640;-40
2023/05/03 03:39:17;;;;;;;;;;;15.60;60.40;;;;;;4994508;28;87270;-41
2023/05/03 03:41:42;;;;;;;;;;;15.60;60.60;;;;;;4992862;28;87612;-40
2023/05/03 03:44:08;;;;;;;;;;;15.60;60.40;;;;;;4992079;28;88988;-40
2023/05/03 03:46:33;;;;;;;;;;;15.60;60.40;;;;;;4997043;28;87047;-39
2023/05/03 03:48:59;;;;;;;;;;;15.60;60.40;;;;;;4990955;28;88256;-40
2023/05/03 03:51:25;;;;;;;;;;;15.60;60.30;;;;;;4995016;28;87252;-39
2023/05/03 03:53:51;;;;;;;;;;;15.60;60.30;;;;;;4991676;28;88753;-41
2023/05/03 03:56:16;;;;;;;;;;;15.60;60.50;;;;;;4993490;28;88066;-39
2023/05/03 03:58:42;;;;;;;;;;;15.60;60.40;;;;;;4993288;28;87157;-41
2023/05/03 04:01:08;;;;;;;;;;;15.60;60.40;;;;;;4993249;28;87265;-39
2023/05/03 04:03:33;;;;;;;;;;;15.60;61.10;;;;;;4993742;28;89009;-40
2023/05/03 04:05:59;;;;;;;;;;;15.50;60.40;;;;;;4991140;28;86898;-39
2023/05/03 04:08:24;;;;;;;;;;;15.50;60.40;;;;;;4996548;28;88686;-41
2023/05/03 04:10:50;;;;;;;;;;;15.50;60.50;;;;;;4991258;28;87156;-40
2023/05/03 04:13:15;;;;;;;;;;;15.50;60.30;;;;;;4993387;28;87469;-41
2023/05/03 04:15:41;;;;;;;;;;;15.50;60.50;;;;;;4992253;28;87840;-40
2023/05/03 04:18:07;;;;;;;;;;;15.50;60.40;;;;;;4991391;28;87070;-40
2023/05/03 04:20:33;;;;;;;;;;;15.50;60.50;;;;;;4994625;28;87330;-40
2023/05/03 04:22:59;;;;;;;;;;;15.50;60.60;;;;;;4990709;28;89903;-40
2023/05/03 04:25:25;;;;;;;;;;;15.40;60.60;;;;;;4993534;28;86323;-41
2023/05/03 04:27:51;;;;;;;;;;;15.40;60.50;;;;;;4992216;28;88037;-40
2023/05/03 04:30:16;;;;;;;;;;;15.50;60.50;;;;;;4994673;28;88193;-40
2023/05/03 04:32:42;;;;;;;;;;;15.40;60.60;;;;;;4992692;28;89326;-40
2023/05/03 04:35:09;;;;;;;;;;;15.40;60.70;;;;;;4990432;28;87130;-39
2023/05/03 04:37:35;;;;;;;;;;;15.40;60.50;;;;;;4990861;28;87135;-40
2023/05/03 04:40:03;;;;;;;;;;;15.40;60.60;;;;;;4993209;28;88959;-41
2023/05/03 04:42:28;;;;;;;;;;;15.40;60.50;;;;;;4992204;28;88447;-40
2023/05/03 04:44:54;;;;;;;;;;;15.40;60.70;;;;;;4991833;28;87426;-41
2023/05/03 04:47:20;;;;;;;;;;;15.30;60.60;;;;;;4993635;28;87472;-41
2023/05/03 04:49:46;;;;;;;;;;;15.40;60.60;;;;;;4990667;28;87251;-39
2023/05/03 04:52:11;;;;;;;;;;;15.40;60.70;;;;;;4996741;28;87126;-39
2023/05/03 04:54:37;;;;;;;;;;;15.40;60.60;;;;;;4991125;28;89283;-41
2023/05/03 04:57:02;;;;;;;;;;;15.30;60.70;;;;;;4991646;28;88306;-41
2023/05/03 04:59:28;;;;;;;;;;;15.30;60.70;;;;;;4992712;28;88401;-39
2023/05/03 05:01:53;;;;;;;;;;;15.30;60.80;;;;;;4990272;28;89282;-39
2023/05/03 05:04:19;;;;;;;;;;;15.30;60.70;;;;;;4993717;28;87221;-40
2023/05/03 05:06:44;;;;;;;;;;;15.30;60.60;;;;;;4990793;28;87383;-40
2023/05/03 05:09:19;;;;;;;;;;;15.30;60.60;;;;;;4992938;28;87229;-40
2023/05/03 05:11:45;;;;;;;;;;;15.30;60.60;;;;;;4992731;28;87082;-39
2023/05/03 05:14:11;;;;;;;;;;;15.30;60.60;;;;;;4993684;28;88228;-40
2023/05/03 05:16:36;;;;;;;;;;;15.30;60.60;;;;;;4989956;28;87037;-39
2023/05/03 05:19:02;;;;;;;;;;;15.30;60.60;;;;;;4993170;28;87742;-40
2023/05/03 05:21:28;;;;;;;;;;;15.30;60.60;;;;;;4990723;28;88915;-41
2023/05/03 05:23:53;;;;;;;;;;;15.30;60.50;;;;;;4994599;28;87179;-40
2023/05/03 05:26:19;;;;;;;;;;;15.20;60.60;;;;;;4996648;28;87153;-40
2023/05/03 05:28:45;;;;;;;;;;;15.20;60.40;;;;;;4993708;28;87968;-40
2023/05/03 05:31:11;;;;;;;;;;;15.30;60.30;;;;;;4997227;28;87152;-40
2023/05/03 05:33:37;;;;;;;;;;;15.30;60.20;;;;;;4996475;28;88933;-41
2023/05/03 05:36:03;;;;;;;;;;;15.20;60.20;;;;;;4995767;28;87108;-39
2023/05/03 05:38:28;;;;;;;;;;;15.20;60.10;;;;;;4996003;28;86612;-40
2023/05/03 05:40:54;;;;;;;;;;;15.20;60.10;;;;;;4994165;28;89290;-40
2023/05/03 05:43:20;;;;;;;;;;;15.20;60.10;;;;;;4996804;28;87083;-41
2023/05/03 05:45:45;;;;;;;;;;;15.20;60.10;;;;;;4992935;28;88985;-40
2023/05/03 05:48:11;;;;;;;;;;;15.10;60.10;;;;;;4995999;28;87818;-41
2023/05/03 05:50:36;;;;;;;;;;;15.20;60.20;;;;;;4994580;28;87167;-41
2023/05/03 05:53:02;;;;;;;;;;;15.10;60.10;;;;;;4995193;28;87538;-41
2023/05/03 05:55:27;;;;;;;;;;;15.20;60.10;;;;;;4998191;28;88117;-40
2023/05/03 05:57:53;;;;;;;;;;;15.10;60.10;;;;;;4994099;28;87607;-40
2023/05/03 06:00:20;;;;;;;;;;;15.10;60.10;;;;;;4996453;28;88082;-39
2023/05/03 06:02:46;;;;;;;;;;;15.10;60.20;;;;;;4993921;28;86263;-41
2023/05/03 06:05:11;;;;;;;;;;;15.10;60.00;;;;;;4995634;28;87072;-41
2023/05/03 06:07:37;;;;;;;;;;;15.10;60.10;;;;;;4994504;28;87946;-40
2023/05/03 06:10:03;;;;;;;;;;;15.10;60.10;;;;;;4993677;28;88105;-41
2023/05/03 06:12:29;;;;;;;;;;;15.10;60.10;;;;;;4995765;28;89598;-40
2023/05/03 06:14:54;;;;;;;;;;;15.10;60.10;;;;;;4991463;28;88969;-40
2023/05/03 06:17:22;;;;;;;;;;;15.10;59.90;;;;;;4997930;28;87112;-41
2023/05/03 06:19:48;;;;;;;;;;;15.10;60.00;;;;;;4992638;28;89632;-39
2023/05/03 06:22:14;;;;;;;;;;;15.10;59.80;;;;;;4993386;28;87179;-39
2023/05/03 06:24:39;;;;;;;;;;;15.10;59.90;;;;;;4994214;28;87390;-40
2023/05/03 06:27:05;;;;;;;;;;;15.10;59.80;;;;;;4992074;28;88386;-41
2023/05/03 06:29:30;;;;;;;;;;;15.10;60.00;;;;;;4995067;28;87155;-40
2023/05/03 06:31:56;;;;;;;;;;;15.00;59.70;;;;;;4992014;28;87117;-41
2023/05/03 06:34:21;;;;;;;;;;;15.10;59.80;;;;;;4992565;28;89027;-40
2023/05/03 06:36:48;;;;;;;;;;;15.10;59.80;;;;;;4993341;28;87119;-39
2023/05/03 06:39:13;;;;;;;;;;;15.00;59.70;;;;;;4995078;28;87319;-40
2023/05/03 06:41:39;;;;;;;;;;;15.00;59.80;;;;;;4994524;28;88174;-39
2023/05/03 06:44:06;;;;;;;;;;;15.00;59.80;;;;;;4991562;28;87193;-41
2023/05/03 06:46:31;;;;;;;;;;;15.00;59.70;;;;;;4993833;28;88448;-40
2023/05/03 06:48:57;;;;;;;;;;;15.00;59.80;;;;;;4992223;28;87102;-40
2023/05/03 06:51:26;;;;;;;;;;;15.00;59.80;;;;;;4993621;28;87441;-40
2023/05/03 06:53:56;;;;;;;;;;;15.00;59.60;;;;;;4993488;28;89439;-41
2023/05/03 06:56:22;;;;;;;;;;;14.90;59.80;;;;;;4990889;28;87051;-38
2023/05/03 06:58:47;;;;;;;;;;;15.00;59.80;;;;;;4990676;28;88049;-39
2023/05/03 07:01:13;;;;;;;;;;;14.90;59.80;;;;;;4997432;28;87993;-40
2023/05/03 07:03:38;;;;;;;;;;;14.90;59.90;;;;;;4990797;28;88900;-39
2023/05/03 07:06:04;;;;;;;;;;;15.00;60.00;;;;;;4991705;28;88360;-40
2023/05/03 07:08:30;;;;;;;;;;;14.90;60.00;;;;;;4994116;28;87159;-40
2023/05/03 07:10:56;;;;;;;;;;;14.90;60.00;;;;;;4990886;28;88763;-41
2023/05/03 07:13:21;;;;;;;;;;;14.90;60.00;;;;;;4993617;28;87708;-40
2023/05/03 07:15:47;;;;;;;;;;;14.90;60.00;;;;;;4928418;28;1697426;-39
2023/05/03 07:18:12;;;;;;;;;;;14.90;60.00;;;;;;4993628;28;87153;-46
2023/05/03 07:20:38;;;;;;;;;;;15.00;60.10;;;;;;4993793;28;87257;-40
2023/05/03 07:23:05;;;;;;;;;;;14.90;60.00;;;;;;4994566;28;87968;-41
2023/05/03 07:25:31;;;;;;;;;;;14.90;60.00;;;;;;4994829;28;89553;-39
2023/05/03 07:27:56;;;;;;;;;;;14.90;60.10;;;;;;4992357;28;87016;-40
2023/05/03 07:30:22;;;;;;;;;;;14.90;60.10;;;;;;4994373;28;87395;-40
2023/05/03 07:32:49;;;;;;;;;;;14.90;60.20;;;;;;4993271;28;87802;-41
2023/05/03 07:35:15;;;;;;;;;;;14.90;60.10;;;;;;4992411;28;87108;-41
2023/05/03 07:37:41;;;;;;;;;;;14.90;60.10;;;;;;4994977;28;87586;-39
2023/05/03 07:40:07;;;;;;;;;;;14.90;60.20;;;;;;4991929;28;87270;-40
2023/05/03 07:42:34;;;;;;;;;;;14.90;60.10;;;;;;4996985;28;87139;-41
2023/05/03 07:45:00;;;;;;;;;;;14.90;60.10;;;;;;4992181;28;87105;-41
2023/05/03 07:47:26;;;;;;;;;;;14.90;60.20;;;;;;4992119;28;88078;-40
2023/05/03 07:49:52;;;;;;;;;;;14.90;60.30;;;;;;4994436;28;88428;-40
2023/05/03 07:52:18;;;;;;;;;;;14.80;60.20;;;;;;4991097;28;87990;-40
2023/05/03 07:54:44;;;;;;;;;;;14.90;60.30;;;;;;4994762;28;88066;-40
2023/05/03 07:57:13;;;;;;;;;;;14.90;60.20;;;;;;4991740;28;88736;-41
2023/05/03 07:59:39;;;;;;;;;;;14.90;60.20;;;;;;4992456;28;87987;-41
2023/05/03 08:02:04;;;;;;;;;;;14.90;60.20;;;;;;4993968;28;87393;-40
2023/05/03 08:04:30;;;;;;;;;;;14.90;60.20;;;;;;4994423;28;89108;-40
2023/05/03 08:06:58;;;;;;;;;;;14.90;60.20;;;;;;4994545;28;87088;-40
2023/05/03 08:09:24;;;;;;;;;;;14.90;60.10;;;;;;4991842;28;87706;-40
2023/05/03 08:11:50;;;;;;;;;;;14.90;60.20;;;;;;4991961;28;90416;-39
2023/05/03 08:14:16;;;;;;;;;;;14.90;60.10;;;;;;4993147;28;87006;-40
2023/05/03 08:16:41;;;;;;;;;;;14.90;60.10;;;;;;4991632;28;87434;-41
2023/05/03 08:19:07;;;;;;;;;;;14.90;60.10;;;;;;4994159;28;88087;-40
2023/05/03 08:21:34;;;;;;;;;;;14.90;60.10;;;;;;4991396;28;87105;-40
2023/05/03 08:24:00;;;;;;;;;;;14.90;60.20;;;;;;4993453;28;87027;-39
2023/05/03 08:26:27;;;;;;;;;;;14.90;60.20;;;;;;4995360;28;88088;-40
2023/05/03 08:28:53;;;;;;;;;;;14.90;60.10;;;;;;4991740;28;89342;-41
2023/05/03 08:31:19;;;;;;;;;;;14.90;60.10;;;;;;4993430;28;89194;-39
2023/05/03 08:33:45;;;;;;;;;;;15.00;60.30;;;;;;4990962;28;87165;-40
2023/05/03 08:36:10;;;;;;;;;;;15.00;60.20;;;;;;4993265;28;87970;-40
2023/05/03 08:38:39;;;;;;;;;;;15.00;60.20;;;;;;4991584;28;87825;-40
2023/05/03 08:41:12;;;;;;;;;;;15.00;60.30;;;;;;4991851;28;87131;-40
2023/05/03 08:43:42;;;;;;;;;;;15.00;60.30;;;;;;4994270;28;87362;-40
2023/05/03 08:46:09;;;;;;;;;;;14.90;60.30;;;;;;4991464;28;88000;-41
2023/05/03 08:48:35;;;;;;;;;;;14.90;60.30;;;;;;4994982;28;87021;-39
2023/05/03 08:51:03;;;;;;;;;;;14.90;60.30;;;;;;4991300;28;91564;-39
2023/05/03 08:53:29;;;;;;;;;;;15.00;60.50;;;;;;4991193;28;86488;-39
2023/05/03 08:55:54;;;;;;;;;;;14.90;60.40;;;;;;4993808;28;87134;-41
2023/05/03 08:58:20;;;;;;;;;;;15.00;61.10;;;;;;4990973;28;88112;-41
2023/05/03 09:00:45;;;;;;;;;;;14.90;60.40;;;;;;4991786;28;88124;-39
2023/05/03 09:03:11;;;;;;;;;;;15.00;60.40;;;;;;4992526;28;88291;-40
2023/05/03 09:05:39;;;;;;;;;;;15.00;60.40;;;;;;4990705;28;87979;-40
2023/05/03 09:08:15;;;;;;;;;;;15.00;60.40;;;;;;4993794;28;87372;-39
2023/05/03 09:10:41;;;;;;;;;;;15.00;60.30;;;;;;4995100;28;87589;-41
2023/05/03 09:13:07;;;;;;;;;;;15.00;60.50;;;;;;4991148;28;87121;-40
2023/05/03 09:15:33;;;;;;;;;;;15.00;60.40;;;;;;4993195;28;87118;-41
2023/05/03 09:18:17;;;;;;;;;;;15.00;60.40;;;;;;4990451;28;87143;-40
2023/05/03 09:20:53;;;;;;;;;;;15.00;60.30;;;;;;4990365;28;87155;-41
2023/05/03 09:23:29;;;;;;;;;;;15.00;60.50;;;;;;4991225;28;89368;-40
2023/05/03 09:25:56;;;;;;;;;;;15.00;60.40;;;;;;4989324;28;88961;-40
2023/05/03 09:28:21;;;;;;;;;;;15.00;60.90;;;;;;4990374;28;87051;-41
2023/05/03 09:30:47;;;;;;;;;;;15.00;60.40;;;;;;4992944;28;87425;-41
2023/05/03 09:33:20;;;;;;;;;;;15.10;60.40;;;;;;4994341;28;88008;-40
2023/05/03 09:35:55;;;;;;;;;;;15.10;60.50;;;;;;4990464;28;88896;-40
2023/05/03 09:38:27;;;;;;;;;;;15.10;60.50;;;;;;4991026;28;87231;-40
2023/05/03 09:40:53;;;;;;;;;;;15.10;60.50;;;;;;4991071;28;87167;-39
2023/05/03 09:43:18;;;;;;;;;;;15.10;60.50;;;;;;4993930;28;88322;-39
2023/05/03 09:45:44;;;;;;;;;;;15.00;60.50;;;;;;4989597;28;88164;-39
2023/05/03 09:48:10;;;;;;;;;;;15.00;60.50;;;;;;4992580;28;87164;-40
2023/05/03 09:50:36;;;;;;;;;;;15.00;60.60;;;;;;4990088;28;88984;-40
2023/05/03 09:53:02;;;;;;;;;;;15.00;60.60;;;;;;4993881;28;88092;-41
2023/05/03 09:55:35;;;;;;;;;;;15.00;60.70;;;;;;4993293;28;87541;-40
2023/05/03 09:58:07;;;;;;;;;;;15.00;60.70;;;;;;4993100;28;88239;-41
2023/05/03 10:00:37;;;;;;;;;;;15.00;60.70;;;;;;4991615;28;87076;-40
2023/05/03 10:03:10;;;;;;;;;;;15.00;60.70;;;;;;4990104;28;89088;-39
2023/05/03 10:05:40;;;;;;;;;;;15.00;60.70;;;;;;4990217;28;87179;-39
2023/05/03 10:08:06;;;;;;;;;;;15.00;60.70;;;;;;4991748;28;86235;-40
2023/05/03 10:10:33;;;;;;;;;;;15.10;60.80;;;;;;4996153;28;88002;-40
2023/05/03 10:12:59;;;;;;;;;;;15.00;60.80;;;;;;4992944;28;87960;-40
2023/05/03 10:15:26;;;;;;;;;;;15.00;60.80;;;;;;4994675;28;88437;-41
2023/05/03 10:17:53;;;;;;;;;;;15.00;60.80;;;;;;4994826;28;87914;-39
2023/05/03 10:20:27;;;;;;;;;;;15.10;60.90;;;;;;4994849;28;87212;-40
2023/05/03 10:23:12;;;;;;;;;;;15.00;60.80;;;;;;4992806;28;88778;-41
2023/05/03 10:25:39;;;;;;;;;;;15.00;60.90;;;;;;4992735;28;89784;-39
2023/05/03 10:28:08;;;;;;;;;;;15.00;60.90;;;;;;4996088;28;87184;-40
2023/05/03 10:30:35;;;;;;;;;;;15.00;61.00;;;;;;4993808;28;87587;-39
2023/05/03 10:33:12;;;;;;;;;;;15.00;61.00;;;;;;4994507;28;88648;-41
2023/05/03 10:35:39;;;;;;;;;;;15.00;61.00;;;;;;4992619;28;87149;-41
2023/05/03 10:38:22;;;;;;;;;;;15.00;61.00;;;;;;4997747;28;87261;-41
2023/05/03 10:40:48;;;;;;;;;;;15.00;61.10;;;;;;4995107;28;88038;-41
2023/05/03 10:43:29;;;;;;;;;;;15.00;61.00;;;;;;4993380;28;87945;-41
2023/05/03 10:45:55;;;;;;;;;;;15.00;61.20;;;;;;4991921;28;89229;-40
2023/05/03 10:48:21;;;;;;;;;;;15.00;61.10;;;;;;4992762;28;87597;-40
2023/05/03 10:50:48;;;;;;;;;;;15.00;61.10;;;;;;4995022;28;88808;-41
2023/05/03 10:53:32;;;;;;;;;;;15.10;61.20;;;;;;4993508;28;90163;-39
2023/05/03 10:56:03;;;;;;;;;;;15.00;61.20;;;;;;4993337;28;87571;-41
2023/05/03 10:58:29;;;;;;;;;;;15.10;61.20;;;;;;4993872;28;88777;-40
2023/05/03 11:00:55;;;;;;;;;;;15.00;61.20;;;;;;4997952;28;88281;-39
2023/05/03 11:03:26;;;;;;;;;;;15.10;61.20;;;;;;4992170;28;88430;-41
2023/05/03 11:05:52;;;;;;;;;;;15.10;61.20;;;;;;4993521;28;89007;-44
2023/05/03 11:08:19;;;;;;;;;;;15.00;61.20;;;;;;4991934;28;87045;-40
2023/05/03 11:10:45;;;;;;;;;;;15.00;61.20;;;;;;4994935;28;87340;-39
2023/05/03 11:13:11;;;;;;;;;;;15.00;61.30;;;;;;4992025;28;88641;-39
2023/05/03 11:15:37;;;;;;;;;;;15.00;61.40;;;;;;4994691;28;87528;-41
2023/05/03 11:18:05;;;;;;;;;;;15.00;61.40;;;;;;4992501;28;88834;-41
2023/05/03 11:20:30;;;;;;;;;;;15.00;61.50;;;;;;4992405;28;87985;-41
2023/05/03 11:22:56;;;;;;;;;;;15.00;61.50;;;;;;4997387;28;86299;-39
2023/05/03 11:25:21;;;;;;;;;;;15.00;61.40;;;;;;4992518;28;87868;-40
2023/05/03 11:27:47;;;;;;;;;;;15.10;61.50;;;;;;4995235;28;87099;-40
2023/05/03 11:30:13;;;;;;;;;;;15.10;61.50;;;;;;4991553;28;88035;-41
2023/05/03 11:32:39;;;;;;;;;;;15.10;61.50;;;;;;4994071;28;88001;-41
2023/05/03 11:35:06;;;;;;;;;;;15.10;61.60;;;;;;4992992;28;87233;-39
2023/05/03 11:37:31;;;;;;;;;;;15.10;61.60;;;;;;4992868;28;87346;-41
2023/05/03 11:39:57;;;;;;;;;;;15.10;61.70;;;;;;4994280;28;87168;-39
2023/05/03 11:42:24;;;;;;;;;;;15.10;61.50;;;;;;4991796;28;87174;-41
2023/05/03 11:44:51;;;;;;;;;;;15.10;61.50;;;;;;4996949;28;88816;-41
2023/05/03 11:47:17;;;;;;;;;;;15.10;61.50;;;;;;4993109;28;86396;-39
2023/05/03 11:49:52;;;;;;;;;;;15.20;61.50;;;;;;4993160;28;87091;-40
2023/05/03 11:52:24;;;;;;;;;;;15.20;61.50;;;;;;4994588;28;88104;-41
2023/05/03 11:54:50;;;;;;;;;;;15.20;61.60;;;;;;4992151;28;88116;-40
2023/05/03 11:57:16;;;;;;;;;;;15.20;61.60;;;;;;4992622;28;90140;-40
2023/05/03 11:59:43;;;;;;;;;;;15.20;61.70;;;;;;4993766;28;87232;-39
2023/05/03 12:02:11;;;;;;;;;;;15.20;61.70;;;;;;4991343;28;87234;-40
2023/05/03 12:04:40;;;;;;;;;;;15.20;62.40;;;;;;4996815;28;88032;-39
2023/05/03 12:07:06;;;;;;;;;;;15.20;61.60;;;;;;4992843;28;87099;-41
2023/05/03 12:09:32;;;;;;;;;;;15.20;61.60;;;;;;4992074;28;88706;-40
2023/05/03 12:11:58;;;;;;;;;;;15.20;61.60;;;;;;4993550;28;89002;-40
2023/05/03 12:14:23;;;;;;;;;;;15.20;61.50;;;;;;4990498;28;87125;-40
2023/05/03 12:16:51;;;;;;;;;;;15.30;61.50;;;;;;4993348;28;87449;-41
2023/05/03 12:19:26;;;;;;;;;;;15.30;61.60;;;;;;4989845;28;90162;-40
2023/05/03 12:21:52;;;;;;;;;;;15.30;61.40;;;;;;4990575;28;87166;-40
2023/05/03 12:24:18;;;;;;;;;;;15.30;61.40;;;;;;4994013;28;87217;-40
2023/05/03 12:26:44;;;;;;;;;;;15.30;61.40;;;;;;4993629;28;88411;-40
2023/05/03 12:29:11;;;;;;;;;;;15.30;61.50;;;;;;4992831;28;87481;-40
2023/05/03 12:31:36;;;;;;;;;;;15.30;61.40;;;;;;4991476;28;89613;-40
2023/05/03 12:34:03;;;;;;;;;;;15.30;61.50;;;;;;4991559;28;88281;-41
2023/05/03 12:36:30;;;;;;;;;;;15.30;61.40;;;;;;4994005;28;87523;-40
2023/05/03 12:38:55;;;;;;;;;;;15.30;61.50;;;;;;4989226;28;89737;-40
2023/05/03 12:41:23;;;;;;;;;;;15.30;61.50;;;;;;4992058;28;87207;-41
2023/05/03 12:43:49;;;;;;;;;;;15.30;61.50;;;;;;4991642;28;87947;-39
2023/05/03 12:46:14;;;;;;;;;;;15.30;61.60;;;;;;4990878;28;88281;-41
2023/05/03 12:48:40;;;;;;;;;;;15.30;61.50;;;;;;4996028;28;87287;-41
2023/05/03 12:51:05;;;;;;;;;;;15.30;61.50;;;;;;4989696;28;87839;-40
2023/05/03 12:53:31;;;;;;;;;;;15.30;61.60;;;;;;4993423;28;87222;-40
2023/05/03 12:55:56;;;;;;;;;;;15.30;61.60;;;;;;4991301;28;87507;-41
2023/05/03 12:58:22;;;;;;;;;;;15.30;61.70;;;;;;4991753;28;88246;-41
2023/05/03 13:00:47;;;;;;;;;;;15.30;61.70;;;;;;4993326;28;87442;-40
2023/05/03 13:03:13;;;;;;;;;;;15.30;61.70;;;;;;4991328;28;87114;-40
2023/05/03 13:05:39;;;;;;;;;;;15.30;61.70;;;;;;4993780;28;87019;-41
2023/05/03 13:08:05;;;;;;;;;;;15.30;61.80;;;;;;4989930;28;88210;-41
2023/05/03 13:10:30;;;;;;;;;;;15.30;61.80;;;;;;4995423;28;88694;-41
2023/05/03 13:12:56;;;;;;;;;;;15.30;61.90;;;;;;4991860;28;87090;-39
2023/05/03 13:15:24;;;;;;;;;;;15.30;61.90;;;;;;4989890;28;87494;-41
2023/05/03 13:17:50;;;;;;;;;;;15.30;62.00;;;;;;4990206;28;88043;-41
2023/05/03 13:20:16;;;;;;;;;;;15.30;61.90;;;;;;4993342;28;87207;-41
2023/05/03 13:22:41;;;;;;;;;;;15.30;62.00;;;;;;4993480;28;87572;-40
2023/05/03 13:25:07;;;;;;;;;;;15.30;62.00;;;;;;4991096;28;86431;-39
2023/05/03 13:27:32;;;;;;;;;;;15.30;61.90;;;;;;4992338;28;87129;-40
2023/05/03 13:29:59;;;;;;;;;;;15.30;61.90;;;;;;4992329;28;87345;-40
2023/05/03 13:32:24;;;;;;;;;;;15.30;61.90;;;;;;4992299;28;90465;-40
2023/05/03 13:34:50;;;;;;;;;;;15.30;61.90;;;;;;4989806;28;88951;-41
2023/05/03 13:37:17;;;;;;;;;;;15.30;62.10;;;;;;4993845;28;87672;-41
2023/05/03 13:39:44;;;;;;;;;;;15.30;62.10;;;;;;4994104;28;87180;-41
2023/05/03 13:42:10;;;;;;;;;;;15.30;62.10;;;;;;4991033;28;87958;-41
2023/05/03 13:44:35;;;;;;;;;;;15.30;62.20;;;;;;4992713;28;90068;-40
2023/05/03 13:47:01;;;;;;;;;;;15.30;62.20;;;;;;4993612;28;87678;-41
2023/05/03 13:49:26;;;;;;;;;;;15.30;62.20;;;;;;4997700;28;87830;-40
2023/05/03 13:51:53;;;;;;;;;;;15.30;62.20;;;;;;4997007;28;88124;-39
2023/05/03 13:54:18;;;;;;;;;;;15.30;62.20;;;;;;4998809;28;87102;-41
2023/05/03 13:56:44;;;;;;;;;;;15.30;62.20;;;;;;4993899;28;89208;-40
2023/05/03 13:59:11;;;;;;;;;;;15.30;62.30;;;;;;4994551;28;87868;-41
2023/05/03 14:01:36;;;;;;;;;;;15.30;62.20;;;;;;4996207;28;87996;-39
2023/05/03 14:04:02;;;;;;;;;;;15.30;62.20;;;;;;4992920;28;87884;-41
2023/05/03 14:06:28;;;;;;;;;;;15.30;62.20;;;;;;4994473;28;87221;-41
2023/05/03 14:08:55;;;;;;;;;;;15.40;62.20;;;;;;4992402;28;88625;-41
2023/05/03 14:11:21;;;;;;;;;;;15.40;62.40;;;;;;4994331;28;89450;-40
2023/05/03 14:13:49;;;;;;;;;;;15.40;62.50;;;;;;4999143;28;87076;-40